KLAR/LAR METAR and TAF weather

Enter ICAO airport designator
Station Type Date Time Source
KLAR METAR 2020/09/26 19:53 UTC NOAA

KLAR 261953Z AUTO 28031G42KT 10SM CLR 20/M03 A2999 RMK AO2 PK WND 29047/1942 SLP049 T02001028


Station Type Date Time Source
KLAR Decoded METAR 2020/09/26 19:53 UTC NOAA

LARAMIE REGIONAL AIRPORT, WY, United States (KLAR) 41-19N 105-40W 2216M
Sep 26, 2020 - 03:53 PM EDT / 2020.09.26 1953 UTC
Wind: from the W (280 degrees) at 36 MPH (31 KT) gusting to 48 MPH (42 KT):0
Visibility: 10 mile(s):0
Sky conditions: clear
Temperature: 68.0 F (20.0 C)
Dew Point: 27.0 F (-2.8 C)
Relative Humidity: 21%
Pressure (altimeter): 29.99 in. Hg (1015 hPa)
ob: KLAR 261953Z AUTO 28031G42KT 10SM CLR 20/M03 A2999 RMK AO2 PK WND 29047/1942 SLP049 T02001028
cycle: 20

Station Type Date Time Source
KLAR TAF 2020/09/26 18:22 UTC NOAA

TAF KLAR 261720Z 2618/2718 27025G38KT 6SM HZ OVC100
FM262300 30020G30KT P6SM OVC100
FM270400 31011KT P6SM SCT050

Example: see airport list